Aviation Digital Data Service (ADDS)

Output produced by METARs form (1402 UTC 10 August 2022)
found at http://www.aviationweather.gov/metar/data/
 
Forecast for: WARR (JUANDA , ID)
Text: TAF WARR 101100Z 1012/1112 10010KT 9999 FEW020
Forecast period: 1200 to 1800 UTC 10 August 2022
Forecast type: FROM: standard forecast or significant change
Winds: from the E (100 degrees) at 12 MPH (10 knots; 5.1 m/s)
Visibility: 6 or more miles (10+ km)
Ceiling: at least 12,000 feet AGL
Clouds: few clouds at 2000 feet AGL
Weather: no significant weather forecast for this period
Text: BECMG 1018/1020 25005KT 5000 HZ
Forecast period: 1800 UTC 10 August 2022 to 0000 UTC 11 August 2022
Forecast type: BECOMING: Conditions expected to become as follows by 2000 UTC 10 August 2022
Winds: from the WSW (250 degrees) at 6 MPH (5 knots; 2.6 m/s)
Visibility: 3 miles (5 km)
Ceiling: at least 12,000 feet AGL
Clouds: few clouds at 2000 feet AGL
Weather: HZ  (haze)
Text: BECMG 1100/1102 09010KT 9999 NSW
Forecast period: 0000 to 1200 UTC 11 August 2022
Forecast type: BECOMING: Conditions expected to become as follows by 0200 UTC 11 August 2022
Winds: from the E (90 degrees) at 12 MPH (10 knots; 5.1 m/s)
Visibility: 6 or more miles (10+ km)
Ceiling: at least 12,000 feet AGL
Clouds: few clouds at 2000 feet AGL
Weather: NSW  (no significant weather)